createdAt,value
2023-04-01T00:00:27.578Z,988.34
2023-04-01T00:01:27.589Z,988.35
2023-04-01T00:02:27.605Z,988.33
2023-04-01T00:03:27.812Z,988.39
2023-04-01T00:04:27.560Z,988.31
2023-04-01T00:05:27.541Z,988.33
2023-04-01T00:06:27.522Z,988.22
2023-04-01T00:07:30.744Z,988.28
2023-04-01T00:08:27.506Z,988.29
2023-04-01T00:09:29.972Z,988.25
2023-04-01T00:10:27.482Z,988.28
2023-04-01T00:11:27.495Z,988.29
2023-04-01T00:12:27.472Z,988.28
2023-04-01T00:13:27.518Z,988.24
2023-04-01T00:14:27.440Z,988.20
2023-04-01T00:15:27.433Z,988.21
2023-04-01T00:16:27.443Z,988.21
2023-04-01T00:17:27.485Z,988.28
2023-04-01T00:18:27.412Z,988.16
2023-04-01T00:19:27.435Z,988.19
2023-04-01T00:20:27.388Z,988.18
2023-04-01T00:21:27.364Z,988.23
2023-04-01T00:22:27.363Z,988.18
2023-04-01T00:23:27.354Z,988.13
2023-04-01T00:24:27.350Z,988.20
2023-04-01T00:25:27.343Z,988.13
2023-04-01T00:26:27.327Z,988.18
2023-04-01T00:27:27.311Z,988.16
2023-04-01T00:28:27.310Z,988.16
2023-04-01T00:29:27.297Z,988.14
2023-04-01T00:30:27.301Z,988.20
2023-04-01T00:31:27.328Z,988.17
2023-04-01T00:32:27.310Z,988.11
2023-04-01T00:33:27.260Z,988.14
2023-04-01T00:34:27.257Z,988.12
2023-04-01T00:35:27.239Z,988.08
2023-04-01T00:36:27.309Z,988.11
2023-04-01T00:37:27.222Z,988.10
2023-04-01T00:38:27.208Z,988.09
2023-04-01T00:39:27.202Z,987.99
2023-04-01T00:40:27.192Z,988.10
2023-04-01T00:41:27.206Z,988.13
2023-04-01T00:42:27.176Z,988.09
2023-04-01T00:43:27.182Z,988.07
2023-04-01T00:44:27.177Z,988.04
2023-04-01T00:45:27.145Z,988.06
2023-04-01T00:46:27.184Z,988.03
2023-04-01T00:47:27.150Z,988.06
2023-04-01T00:48:27.114Z,988.09
2023-04-01T00:49:27.109Z,988.03
2023-04-01T00:50:27.101Z,988.02
2023-04-01T00:51:27.088Z,988.08
2023-04-01T00:52:27.069Z,988.07
2023-04-01T00:53:27.064Z,988.05
2023-04-01T00:54:27.055Z,988.16
2023-04-01T00:55:27.043Z,988.06
2023-04-01T00:56:27.044Z,988.01
2023-04-01T00:57:27.093Z,988.02
2023-04-01T00:58:27.017Z,988.05
2023-04-01T00:59:27.002Z,988.10
2023-04-01T01:00:26.997Z,988.05
2023-04-01T01:01:27.032Z,988.03
2023-04-01T01:02:27.061Z,988.06
2023-04-01T01:03:27.020Z,988.02
2023-04-01T01:04:26.956Z,988.00
2023-04-01T01:05:27.580Z,987.99
2023-04-01T01:06:26.948Z,988.02
2023-04-01T01:07:26.931Z,988.00
2023-04-01T01:08:26.926Z,987.99
2023-04-01T01:09:26.908Z,987.98
2023-04-01T01:10:26.911Z,987.94
2023-04-01T01:11:27.953Z,987.95
2023-04-01T01:12:26.872Z,988.00
2023-04-01T01:13:26.865Z,987.98
2023-04-01T01:14:26.859Z,987.95
2023-04-01T01:15:26.841Z,987.97
2023-04-01T01:16:26.906Z,987.94
2023-04-01T01:17:26.855Z,987.97
2023-04-01T01:18:26.815Z,987.95
2023-04-01T01:19:26.798Z,987.96
2023-04-01T01:20:27.073Z,987.98
2023-04-01T01:21:26.783Z,987.98
2023-04-01T01:22:26.771Z,987.95
2023-04-01T01:23:26.767Z,987.98
2023-04-01T01:24:26.751Z,987.98
2023-04-01T01:25:26.742Z,987.95
2023-04-01T01:26:26.731Z,988.01
2023-04-01T01:27:26.722Z,987.96
2023-04-01T01:28:26.715Z,987.97
2023-04-01T01:29:26.707Z,987.99
2023-04-01T01:30:26.712Z,988.00
2023-04-01T01:31:26.822Z,988.04
2023-04-01T01:32:26.706Z,987.99
2023-04-01T01:33:26.658Z,988.06
2023-04-01T01:34:26.648Z,987.94
2023-04-01T01:36:02.295Z,987.98
2023-04-01T01:36:26.637Z,988.01
2023-04-01T01:38:58.233Z,987.97
2023-04-01T01:39:58.214Z,988.01
2023-04-01T01:42:02.159Z,987.96
2023-04-01T01:43:02.133Z,987.91
2023-04-01T01:45:06.089Z,987.95
2023-04-01T01:46:06.165Z,987.87
2023-04-01T01:48:10.023Z,987.90
2023-04-01T01:49:09.992Z,987.91
2023-04-01T01:51:13.940Z,987.97
2023-04-01T01:52:13.919Z,987.95
2023-04-01T01:54:17.890Z,987.95
2023-04-01T01:55:17.837Z,987.89
2023-04-01T01:57:21.832Z,987.95
2023-04-01T01:58:21.775Z,987.97
2023-04-01T02:00:25.718Z,987.94
2023-04-01T02:01:25.767Z,988.03
2023-04-01T02:03:29.637Z,987.93
2023-04-01T02:04:29.637Z,987.90
2023-04-01T02:06:33.604Z,987.88
2023-04-01T02:07:33.548Z,987.95
2023-04-01T02:09:37.504Z,987.94
2023-04-01T02:10:37.486Z,987.96
2023-04-01T02:12:41.419Z,987.98
2023-04-01T02:13:41.435Z,987.96
2023-04-01T02:15:45.369Z,987.93
2023-04-01T02:16:45.338Z,987.95
2023-04-01T02:18:38.193Z,987.90
2023-04-01T02:19:38.176Z,987.93
2023-04-01T02:21:42.126Z,987.85
2023-04-01T02:22:42.104Z,987.92
2023-04-01T02:24:46.058Z,987.92
2023-04-01T02:25:46.035Z,987.87
2023-04-01T02:27:49.975Z,987.91
2023-04-01T02:28:49.964Z,987.93
2023-04-01T02:30:53.907Z,987.91
2023-04-01T02:31:53.932Z,987.96
2023-04-01T02:33:57.830Z,987.89
2023-04-01T02:34:57.814Z,987.85
2023-04-01T02:37:01.802Z,987.96
2023-04-01T02:38:01.747Z,987.87
2023-04-01T02:40:05.680Z,987.92
2023-04-01T02:41:05.666Z,987.93
2023-04-01T02:43:09.628Z,987.92
2023-04-01T02:44:09.598Z,987.90
2023-04-01T02:46:13.568Z,987.84
2023-04-01T02:47:13.535Z,987.90
2023-04-01T02:49:06.400Z,987.90
2023-04-01T02:50:06.419Z,987.85
2023-04-01T02:52:10.339Z,987.83
2023-04-01T02:53:10.311Z,987.75
2023-04-01T02:55:14.268Z,987.74
2023-04-01T02:56:14.248Z,987.76
2023-04-01T02:58:18.193Z,987.80
2023-04-01T02:59:18.177Z,987.78
2023-04-01T03:01:22.164Z,987.79
2023-04-01T03:02:22.171Z,987.79
2023-04-01T03:04:26.039Z,987.79
2023-04-01T03:05:26.025Z,987.77
2023-04-01T03:07:29.975Z,987.78
2023-04-01T03:08:29.955Z,987.79
2023-04-01T03:10:33.902Z,987.79
2023-04-01T03:11:33.887Z,987.81
2023-04-01T03:13:37.823Z,987.76
2023-04-01T03:14:37.812Z,987.85
2023-04-01T03:16:41.792Z,987.82
2023-04-01T03:17:41.795Z,987.83
2023-04-01T03:19:45.703Z,987.86
2023-04-01T03:20:45.661Z,987.82
2023-04-01T03:22:49.644Z,987.86
2023-04-01T03:23:49.614Z,987.80
2023-04-01T03:25:53.538Z,987.85
2023-04-01T03:26:53.542Z,987.85
2023-04-01T03:28:46.381Z,987.80
2023-04-01T03:29:46.381Z,987.83
2023-04-01T03:31:50.314Z,987.75
2023-04-01T03:32:50.346Z,987.80
2023-04-01T03:34:54.242Z,987.82
2023-04-01T03:35:54.247Z,987.83
2023-04-01T03:37:58.182Z,987.82
2023-04-01T03:38:58.154Z,987.82
2023-04-01T03:41:02.721Z,987.83
2023-04-01T03:42:02.702Z,987.79
2023-04-01T03:44:06.646Z,987.83
2023-04-01T03:45:06.624Z,987.83
2023-04-01T03:47:10.574Z,987.82
2023-04-01T03:48:10.693Z,987.84
2023-04-01T03:50:14.495Z,987.84
2023-04-01T03:51:14.491Z,987.79
2023-04-01T03:53:18.452Z,987.77
2023-04-01T03:54:18.439Z,987.77
2023-04-01T03:56:22.380Z,987.79
2023-04-01T03:57:22.418Z,987.81
2023-04-01T03:59:15.263Z,987.83
2023-04-01T04:00:15.250Z,987.82
2023-04-01T04:02:19.224Z,987.82
2023-04-01T04:03:19.392Z,987.83
2023-04-01T04:05:23.120Z,987.81
2023-04-01T04:06:23.110Z,987.80
2023-04-01T04:08:15.986Z,987.81
2023-04-01T04:09:15.978Z,987.77
2023-04-01T04:11:19.917Z,987.82
2023-04-01T04:12:19.892Z,987.84
2023-04-01T04:14:23.835Z,987.81
2023-04-01T04:15:23.815Z,987.77
2023-04-01T04:17:27.871Z,987.83
2023-04-01T04:18:27.750Z,987.78
2023-04-01T04:20:31.693Z,987.83
2023-04-01T04:21:31.674Z,987.81
2023-04-01T04:23:35.620Z,987.83
2023-04-01T04:24:35.598Z,987.83
2023-04-01T04:26:39.538Z,987.83
2023-04-01T04:27:39.533Z,987.80
2023-04-01T04:29:43.471Z,987.84
2023-04-01T04:30:43.449Z,987.86
2023-04-01T04:32:47.424Z,987.83
2023-04-01T04:33:47.386Z,987.89
2023-04-01T04:35:51.340Z,987.87
2023-04-01T04:36:51.304Z,987.85
2023-04-01T04:38:44.180Z,987.87
2023-04-01T04:39:44.158Z,987.91
2023-04-01T04:41:48.114Z,987.90
2023-04-01T04:42:48.086Z,987.84
2023-04-01T04:44:52.034Z,987.86
2023-04-01T04:45:52.016Z,987.93
2023-04-01T04:47:56.023Z,987.85
2023-04-01T04:48:55.934Z,987.88
2023-04-01T04:50:59.878Z,987.84
2023-04-01T04:51:59.860Z,987.82
2023-04-01T04:54:03.813Z,987.84
2023-04-01T04:55:03.792Z,987.74
2023-04-01T04:57:07.811Z,987.73
2023-04-01T04:58:07.717Z,987.77
2023-04-01T05:00:11.657Z,987.75
2023-04-01T05:01:11.689Z,987.87
2023-04-01T05:03:15.779Z,987.84
2023-04-01T05:04:15.602Z,987.82
2023-04-01T05:06:21.654Z,987.87
2023-04-01T05:07:19.541Z,987.93
2023-04-01T05:09:12.465Z,987.85
2023-04-01T05:10:12.371Z,987.90
2023-04-01T05:12:16.311Z,987.86
2023-04-01T05:13:16.307Z,987.82
2023-04-01T05:15:20.251Z,987.85
2023-04-01T05:16:20.251Z,987.82
2023-04-01T05:18:24.212Z,987.82
2023-04-01T05:19:24.150Z,987.82
2023-04-01T05:21:28.109Z,987.83
2023-04-01T05:22:28.088Z,987.80
2023-04-01T05:24:32.021Z,987.74
2023-04-01T05:25:32.354Z,987.77
2023-04-01T05:27:35.951Z,987.75
2023-04-01T05:28:35.932Z,987.77
2023-04-01T05:30:40.005Z,987.83
2023-04-01T05:31:39.886Z,987.79
2023-04-01T05:33:43.827Z,987.78
2023-04-01T05:34:44.743Z,987.79
2023-04-01T05:36:47.741Z,987.84
2023-04-01T05:37:47.733Z,987.76
2023-04-01T05:39:51.675Z,987.74
2023-04-01T05:40:51.660Z,987.79
2023-04-01T05:42:55.595Z,987.78
2023-04-01T05:43:55.577Z,987.76
2023-04-01T05:45:59.543Z,987.76
2023-04-01T05:46:59.505Z,987.74
2023-04-01T05:48:52.383Z,987.73
2023-04-01T05:49:52.367Z,987.72
2023-04-01T05:51:56.301Z,987.76
2023-04-01T05:52:56.291Z,987.73
2023-04-01T05:55:00.245Z,987.73
2023-04-01T05:56:00.211Z,987.76
2023-04-01T05:58:04.229Z,987.77
2023-04-01T05:59:04.143Z,987.76
2023-04-01T06:01:11.309Z,987.74
2023-04-01T06:02:08.065Z,987.72
2023-04-01T06:04:12.106Z,987.75
2023-04-01T06:05:11.990Z,987.70
2023-04-01T06:07:15.944Z,987.76
2023-04-01T06:08:17.154Z,987.79
2023-04-01T06:10:19.885Z,987.72
2023-04-01T06:11:19.860Z,987.74
2023-04-01T06:13:23.816Z,987.76
2023-04-01T06:14:23.787Z,987.75
2023-04-01T06:16:27.750Z,987.74
2023-04-01T06:17:27.727Z,987.71
2023-04-01T06:19:31.663Z,987.68
2023-04-01T06:20:31.640Z,987.72
2023-04-01T06:22:35.600Z,987.72
2023-04-01T06:23:35.580Z,987.72
2023-04-01T06:25:39.511Z,987.74
2023-04-01T06:26:39.494Z,987.78
2023-04-01T06:28:32.370Z,987.73
2023-04-01T06:29:32.370Z,987.78
2023-04-01T06:31:36.327Z,987.71
2023-04-01T06:32:36.312Z,987.67
2023-04-01T06:34:40.228Z,987.69
2023-04-01T06:35:40.222Z,987.73
2023-04-01T06:37:44.164Z,987.79
2023-04-01T06:38:44.135Z,987.78
2023-04-01T06:40:48.081Z,987.70
2023-04-01T06:41:48.074Z,987.78
2023-04-01T06:43:52.017Z,987.78
2023-04-01T06:44:51.983Z,987.76
2023-04-01T06:46:55.929Z,987.79
2023-04-01T06:47:55.933Z,987.77
2023-04-01T06:49:59.860Z,987.75
2023-04-01T06:50:59.841Z,987.77
2023-04-01T06:53:03.829Z,987.76
2023-04-01T06:54:03.782Z,987.71
2023-04-01T06:56:07.730Z,987.73
2023-04-01T06:57:07.780Z,987.79
2023-04-01T06:59:00.603Z,987.78
2023-04-01T07:00:00.572Z,987.79
2023-04-01T07:02:04.509Z,987.77
2023-04-01T07:03:06.736Z,987.71
2023-04-01T07:05:08.446Z,987.67
2023-04-01T07:06:08.421Z,987.70
2023-04-01T07:08:12.381Z,987.77
2023-04-01T07:09:12.356Z,987.74
2023-04-01T07:11:16.311Z,987.78
2023-04-01T07:12:16.293Z,987.79
2023-04-01T07:14:20.235Z,987.73
2023-04-01T07:15:20.232Z,987.77
2023-04-01T07:17:24.197Z,987.76
2023-04-01T07:18:24.140Z,987.71
2023-04-01T07:20:28.088Z,987.80
2023-04-01T07:21:28.070Z,987.69
2023-04-01T07:23:32.016Z,987.78
2023-04-01T07:24:32.009Z,987.73
2023-04-01T07:26:36.113Z,987.78
2023-04-01T07:27:35.934Z,987.78
2023-04-01T07:29:39.876Z,987.80
2023-04-01T07:30:39.862Z,987.75
2023-04-01T07:32:43.815Z,987.84
2023-04-01T07:33:43.782Z,987.82
2023-04-01T07:35:47.746Z,987.87
2023-04-01T07:36:47.711Z,987.81
2023-04-01T07:38:40.596Z,987.88
2023-04-01T07:39:40.568Z,987.83
2023-04-01T07:41:44.520Z,987.90
2023-04-01T07:42:44.509Z,987.90
2023-04-01T07:44:48.452Z,987.86
2023-04-01T07:45:48.437Z,987.90
2023-04-01T07:47:52.415Z,987.93
2023-04-01T07:48:52.369Z,987.91
2023-04-01T07:50:56.316Z,987.93
2023-04-01T07:51:56.300Z,987.97
2023-04-01T07:54:00.245Z,987.95
2023-04-01T07:55:00.221Z,988.01
2023-04-01T07:57:04.261Z,988.06
2023-04-01T07:58:04.157Z,988.03
2023-04-01T08:00:08.102Z,988.08
2023-04-01T08:01:08.080Z,988.01
2023-04-01T08:03:12.156Z,988.05
2023-04-01T08:04:12.092Z,988.00
2023-04-01T08:06:15.974Z,987.96
2023-04-01T08:07:15.944Z,988.00
2023-04-01T08:09:08.825Z,987.98
2023-04-01T08:10:08.805Z,987.96
2023-04-01T08:12:12.757Z,988.02
2023-04-01T08:13:12.730Z,988.05
2023-04-01T08:15:16.667Z,988.09
2023-04-01T08:16:16.707Z,988.09
2023-04-01T08:18:20.604Z,988.13
2023-04-01T08:19:20.584Z,988.15
2023-04-01T08:21:24.537Z,988.21
2023-04-01T08:22:24.511Z,988.13
2023-04-01T08:24:31.856Z,988.24
2023-04-01T08:25:28.443Z,988.25
2023-04-01T08:27:32.387Z,988.22
2023-04-01T08:28:32.362Z,988.24
2023-04-01T08:30:36.330Z,988.21
2023-04-01T08:31:36.338Z,988.22
2023-04-01T08:33:40.242Z,988.25
2023-04-01T08:34:40.222Z,988.27
2023-04-01T08:36:44.164Z,988.27
2023-04-01T08:37:44.152Z,988.28
2023-04-01T08:39:48.100Z,988.29
2023-04-01T08:40:48.078Z,988.29
2023-04-01T08:42:52.025Z,988.26
2023-04-01T08:43:52.008Z,988.30
2023-04-01T08:45:55.974Z,988.35
2023-04-01T08:46:55.935Z,988.31
2023-04-01T08:48:48.809Z,988.25
2023-04-01T08:49:48.802Z,988.30
2023-04-01T08:51:52.738Z,988.35
2023-04-01T08:52:52.721Z,988.34
2023-04-01T08:54:56.669Z,988.33
2023-04-01T08:55:56.650Z,988.32
2023-04-01T08:58:00.597Z,988.36
2023-04-01T08:59:00.593Z,988.44
2023-04-01T09:01:04.528Z,988.32
2023-04-01T09:02:04.533Z,988.42
2023-04-01T09:04:08.566Z,988.45
2023-04-01T09:05:08.446Z,988.41
2023-04-01T09:07:12.935Z,988.44
2023-04-01T09:08:12.371Z,988.41
2023-04-01T09:10:16.322Z,988.44
2023-04-01T09:11:16.299Z,988.43
2023-04-01T09:13:20.270Z,988.45
2023-04-01T09:14:20.256Z,988.48
2023-04-01T09:16:13.387Z,988.47
2023-04-01T09:17:13.310Z,988.49
2023-04-01T09:19:06.203Z,988.53
2023-04-01T09:20:06.197Z,988.48
2023-04-01T09:22:10.200Z,988.46
2023-04-01T09:23:10.169Z,988.52
2023-04-01T09:25:14.118Z,988.52
2023-04-01T09:26:14.086Z,988.52
2023-04-01T09:27:14.073Z,988.56
2023-04-01T09:28:14.076Z,988.54
2023-04-01T09:29:14.074Z,988.55
2023-04-01T09:30:14.052Z,988.50
2023-04-01T09:31:14.103Z,988.51
2023-04-01T09:32:14.030Z,988.61
2023-04-01T09:33:14.035Z,988.57
2023-04-01T09:34:14.013Z,988.55
2023-04-01T09:35:13.998Z,988.57
2023-04-01T09:36:14.139Z,988.59
2023-04-01T09:37:13.990Z,988.62
2023-04-01T09:38:13.982Z,988.63
2023-04-01T09:39:13.966Z,988.61
2023-04-01T09:40:13.961Z,988.62
2023-04-01T09:41:13.953Z,988.65
2023-04-01T09:42:13.945Z,988.61
2023-04-01T09:43:13.937Z,988.66
2023-04-01T09:44:13.927Z,988.63
2023-04-01T09:45:13.914Z,988.65
2023-04-01T09:46:13.929Z,988.66
2023-04-01T09:47:13.894Z,988.68
2023-04-01T09:48:13.910Z,988.67
2023-04-01T09:49:13.880Z,988.69
2023-04-01T09:50:13.863Z,988.71
2023-04-01T09:51:13.862Z,988.75
2023-04-01T09:52:13.852Z,988.73
2023-04-01T09:53:13.848Z,988.72
2023-04-01T09:54:13.828Z,988.73
2023-04-01T09:55:13.817Z,988.75
2023-04-01T09:56:13.820Z,988.77
2023-04-01T09:57:13.847Z,988.73
2023-04-01T09:58:13.792Z,988.78
2023-04-01T09:59:13.795Z,988.73
2023-04-01T10:00:13.768Z,988.80
2023-04-01T10:01:13.797Z,988.76
2023-04-01T10:02:13.757Z,988.85
2023-04-01T10:03:13.841Z,988.84
2023-04-01T10:04:13.739Z,988.84
2023-04-01T10:05:13.783Z,988.78
2023-04-01T10:06:13.756Z,988.88
2023-04-01T10:07:13.718Z,988.86
2023-04-01T10:08:13.700Z,988.82
2023-04-01T10:09:13.689Z,988.83
2023-04-01T10:10:13.682Z,988.83
2023-04-01T10:11:13.677Z,988.85
2023-04-01T10:12:13.667Z,988.84
2023-04-01T10:13:13.656Z,988.84
2023-04-01T10:14:13.649Z,988.84
2023-04-01T10:15:13.632Z,988.89
2023-04-01T10:16:13.688Z,988.84
2023-04-01T10:17:13.621Z,988.77
2023-04-01T10:18:13.616Z,988.84
2023-04-01T10:19:13.600Z,988.82
2023-04-01T10:20:13.590Z,988.84
2023-04-01T10:21:13.589Z,988.85
2023-04-01T10:22:13.619Z,988.81
2023-04-01T10:23:13.613Z,988.90
2023-04-01T10:24:13.563Z,988.85
2023-04-01T10:25:13.544Z,988.86
2023-04-01T10:26:13.572Z,988.90
2023-04-01T10:27:13.525Z,988.86
2023-04-01T10:28:13.526Z,988.88
2023-04-01T10:29:13.514Z,988.91
2023-04-01T10:30:13.534Z,988.85
2023-04-01T10:31:13.543Z,988.89
2023-04-01T10:32:13.722Z,988.90
2023-04-01T10:33:13.485Z,988.90
2023-04-01T10:34:13.467Z,988.86
2023-04-01T10:35:13.467Z,988.93
2023-04-01T10:36:13.474Z,988.89
2023-04-01T10:37:13.441Z,988.88
2023-04-01T10:38:13.427Z,988.91
2023-04-01T10:39:13.419Z,988.87
2023-04-01T10:40:13.414Z,988.88
2023-04-01T10:41:13.402Z,988.91
2023-04-01T10:42:13.402Z,988.92
2023-04-01T10:43:13.386Z,988.88
2023-04-01T10:44:13.375Z,988.91
2023-04-01T10:45:13.359Z,988.93
2023-04-01T10:46:15.634Z,988.94
2023-04-01T10:47:13.348Z,988.90
2023-04-01T10:48:13.336Z,988.89
2023-04-01T10:49:13.332Z,988.89
2023-04-01T10:50:13.316Z,988.97
2023-04-01T10:51:13.308Z,988.94
2023-04-01T10:52:13.303Z,988.89
2023-04-01T10:53:13.294Z,988.97
2023-04-01T10:54:13.289Z,988.90
2023-04-01T10:55:13.273Z,988.89
2023-04-01T10:56:13.269Z,988.89
2023-04-01T10:57:13.294Z,988.90
2023-04-01T10:58:13.245Z,988.90
2023-04-01T10:59:13.242Z,988.91
2023-04-01T11:00:13.236Z,988.91
2023-04-01T11:01:13.246Z,988.93
2023-04-01T11:02:13.431Z,988.93
2023-04-01T11:03:13.293Z,988.98
2023-04-01T11:04:13.197Z,988.94
2023-04-01T11:05:13.182Z,988.93
2023-04-01T11:06:13.180Z,988.95
2023-04-01T11:07:13.189Z,988.90
2023-04-01T11:08:13.178Z,988.96
2023-04-01T11:09:13.155Z,988.88
2023-04-01T11:10:13.140Z,988.95
2023-04-01T11:11:13.132Z,988.97
2023-04-01T11:12:13.126Z,988.91
2023-04-01T11:13:13.118Z,988.97
2023-04-01T11:14:13.108Z,988.92
2023-04-01T11:15:13.094Z,988.96
2023-04-01T11:16:13.130Z,989.04
2023-04-01T11:17:13.083Z,988.95
2023-04-01T11:18:13.111Z,989.03
2023-04-01T11:19:13.075Z,988.97
2023-04-01T11:20:13.065Z,988.98
2023-04-01T11:21:13.047Z,988.99
2023-04-01T11:22:13.052Z,988.97
2023-04-01T11:23:13.026Z,988.96
2023-04-01T11:24:13.018Z,988.96
2023-04-01T11:25:13.006Z,989.01
2023-04-01T11:26:12.997Z,988.95
2023-04-01T11:27:13.055Z,989.01
2023-04-01T11:28:12.982Z,989.06
2023-04-01T11:29:12.975Z,989.01
2023-04-01T11:30:13.048Z,989.04
2023-04-01T11:31:12.972Z,989.02
2023-04-01T11:32:12.947Z,989.00
2023-04-01T11:33:12.981Z,989.04
2023-04-01T11:34:12.928Z,989.10
2023-04-01T11:35:12.930Z,989.03
2023-04-01T11:36:12.943Z,989.04
2023-04-01T11:37:12.904Z,989.08
2023-04-01T11:38:12.892Z,989.14
2023-04-01T11:39:12.886Z,989.10
2023-04-01T11:40:12.919Z,989.13
2023-04-01T11:41:12.869Z,989.11
2023-04-01T11:42:12.927Z,989.05
2023-04-01T11:43:19.983Z,989.06
2023-04-01T11:44:12.840Z,989.11
2023-04-01T11:45:12.829Z,989.10
2023-04-01T11:46:12.841Z,989.10
2023-04-01T11:47:12.825Z,989.06
2023-04-01T11:48:12.809Z,989.08
2023-04-01T11:49:12.791Z,989.11
2023-04-01T11:50:12.922Z,989.12
2023-04-01T11:51:12.789Z,989.16
2023-04-01T11:52:12.773Z,989.12
2023-04-01T11:53:12.764Z,989.18
2023-04-01T11:54:12.752Z,989.13
2023-04-01T11:55:12.742Z,989.15
2023-04-01T11:56:12.739Z,989.19
2023-04-01T11:57:12.764Z,989.22
2023-04-01T11:58:12.719Z,989.18
2023-04-01T11:59:12.772Z,989.24
2023-04-01T12:00:12.702Z,989.23
2023-04-01T12:01:12.695Z,989.21
2023-04-01T12:02:12.716Z,989.34
2023-04-01T12:03:12.764Z,989.23
2023-04-01T12:04:12.879Z,989.25
2023-04-01T12:05:12.661Z,989.23
2023-04-01T12:06:12.655Z,989.20
2023-04-01T12:07:12.641Z,989.21
2023-04-01T12:08:12.632Z,989.29
2023-04-01T12:09:12.624Z,989.23
2023-04-01T12:10:12.613Z,989.24
2023-04-01T12:11:12.609Z,989.25
2023-04-01T12:12:12.596Z,989.26
2023-04-01T12:13:12.596Z,989.27
2023-04-01T12:14:12.588Z,989.28
2023-04-01T12:15:12.574Z,989.25
2023-04-01T12:16:12.615Z,989.27
2023-04-01T12:17:12.555Z,989.27
2023-04-01T12:18:12.582Z,989.24
2023-04-01T12:19:12.544Z,989.30
2023-04-01T12:20:12.541Z,989.30
2023-04-01T12:21:12.527Z,989.29
2023-04-01T12:22:12.514Z,989.26
2023-04-01T12:23:12.515Z,989.25
2023-04-01T12:24:12.497Z,989.30
2023-04-01T12:25:12.488Z,989.26
2023-04-01T12:26:12.483Z,989.29
2023-04-01T12:27:12.481Z,989.27
2023-04-01T12:28:12.502Z,989.20
2023-04-01T12:29:12.468Z,989.25
2023-04-01T12:30:12.441Z,989.30
2023-04-01T12:31:12.456Z,989.23
2023-04-01T12:32:12.497Z,989.24
2023-04-01T12:33:12.468Z,989.25
2023-04-01T12:34:12.413Z,989.27
2023-04-01T12:35:12.405Z,989.33
2023-04-01T12:36:12.493Z,989.34
2023-04-01T12:37:12.391Z,989.38
2023-04-01T12:38:12.381Z,989.32
2023-04-01T12:39:12.372Z,989.46
2023-04-01T12:40:12.364Z,989.32
2023-04-01T12:41:12.422Z,989.43
2023-04-01T12:42:12.346Z,989.32
2023-04-01T12:43:12.337Z,989.38
2023-04-01T12:44:12.334Z,989.36
2023-04-01T12:45:12.334Z,989.33
2023-04-01T12:46:12.371Z,989.39
2023-04-01T12:47:12.310Z,989.37
2023-04-01T12:48:12.294Z,989.41
2023-04-01T12:49:12.284Z,989.40
2023-04-01T12:50:12.279Z,989.35
2023-04-01T12:51:12.277Z,989.40
2023-04-01T12:52:12.264Z,989.38
2023-04-01T12:53:12.250Z,989.40
2023-04-01T12:54:12.261Z,989.43
2023-04-01T12:55:12.232Z,989.45
2023-04-01T12:56:13.092Z,989.45
2023-04-01T12:57:12.277Z,989.44
2023-04-01T12:58:12.201Z,989.51
2023-04-01T12:59:12.207Z,989.53
2023-04-01T13:00:12.198Z,989.61
2023-04-01T13:01:12.247Z,989.53
2023-04-01T13:02:12.180Z,989.57
2023-04-01T13:03:12.159Z,989.61
2023-04-01T13:04:12.170Z,989.59
2023-04-01T13:05:12.160Z,989.53
2023-04-01T13:06:12.134Z,989.50
2023-04-01T13:07:12.131Z,989.52
2023-04-01T13:08:12.113Z,989.52
2023-04-01T13:09:12.106Z,989.52
2023-04-01T13:10:12.098Z,989.52
2023-04-01T13:11:12.085Z,989.50
2023-04-01T13:12:12.080Z,989.54
2023-04-01T13:13:12.067Z,989.48
2023-04-01T13:14:21.395Z,989.51
2023-04-01T13:15:12.065Z,989.54
2023-04-01T13:16:12.065Z,989.54
2023-04-01T13:17:12.039Z,989.60
2023-04-01T13:18:12.026Z,989.63
2023-04-01T13:19:12.022Z,989.61
2023-04-01T13:20:12.013Z,989.62
2023-04-01T13:21:12.010Z,989.58
2023-04-01T13:22:11.989Z,989.63
2023-04-01T13:23:11.994Z,989.60
2023-04-01T13:24:11.975Z,989.65
2023-04-01T13:25:11.967Z,989.73
2023-04-01T13:26:14.978Z,989.63
2023-04-01T13:27:11.968Z,989.63
2023-04-01T13:28:11.941Z,989.66
2023-04-01T13:29:11.930Z,989.68
2023-04-01T13:30:11.928Z,989.71
2023-04-01T13:31:11.953Z,989.68
2023-04-01T13:32:11.896Z,989.64
2023-04-01T13:33:11.942Z,989.68
2023-04-01T13:34:11.894Z,989.69
2023-04-01T13:35:11.873Z,989.70
2023-04-01T13:36:11.916Z,989.75
2023-04-01T13:37:11.863Z,989.74
2023-04-01T13:38:11.856Z,989.73
2023-04-01T13:39:11.854Z,989.81
2023-04-01T13:40:11.837Z,989.76
2023-04-01T13:41:11.822Z,989.79
2023-04-01T13:42:11.825Z,989.80
2023-04-01T13:43:11.809Z,989.76
2023-04-01T13:44:11.799Z,989.79
2023-04-01T13:45:11.788Z,989.73
2023-04-01T13:46:11.806Z,989.75
2023-04-01T13:47:11.777Z,989.78
2023-04-01T13:48:14.678Z,989.76
2023-04-01T13:49:11.760Z,989.84
2023-04-01T13:50:11.752Z,989.75
2023-04-01T13:51:11.748Z,989.87
2023-04-01T13:52:11.737Z,989.81
2023-04-01T13:53:11.728Z,989.78
2023-04-01T13:54:11.716Z,989.77
2023-04-01T13:55:11.710Z,989.80
2023-04-01T13:56:11.708Z,989.77
2023-04-01T13:57:11.729Z,989.84
2023-04-01T13:58:11.693Z,989.82
2023-04-01T13:59:11.675Z,989.79
2023-04-01T14:00:11.685Z,989.83
2023-04-01T14:01:11.703Z,989.82
2023-04-01T14:02:11.651Z,989.85
2023-04-01T14:03:11.711Z,989.93
2023-04-01T14:04:11.721Z,989.96
2023-04-01T14:05:11.633Z,989.85
2023-04-01T14:06:11.623Z,989.88
2023-04-01T14:07:11.615Z,989.85
2023-04-01T14:08:11.603Z,989.79
2023-04-01T14:09:11.589Z,989.83
2023-04-01T14:10:11.579Z,989.86
2023-04-01T14:11:11.577Z,989.84
2023-04-01T14:12:11.566Z,989.83
2023-04-01T14:13:11.557Z,989.78
2023-04-01T14:14:11.548Z,989.82
2023-04-01T14:15:11.536Z,989.84
2023-04-01T14:16:11.561Z,989.83
2023-04-01T14:17:11.522Z,989.81
2023-04-01T14:18:11.541Z,989.85
2023-04-01T14:19:11.523Z,989.90
2023-04-01T14:20:11.498Z,989.83
2023-04-01T14:21:11.484Z,989.91
2023-04-01T14:22:11.480Z,989.90
2023-04-01T14:23:11.473Z,989.91
2023-04-01T14:24:11.465Z,989.90
2023-04-01T14:25:11.454Z,989.91
2023-04-01T14:26:11.448Z,989.98
2023-04-01T14:27:11.441Z,989.98
2023-04-01T14:28:11.432Z,989.99
2023-04-01T14:29:11.422Z,990.03
2023-04-01T14:30:11.415Z,990.06
2023-04-01T14:31:11.407Z,990.13
2023-04-01T14:32:11.539Z,990.10
2023-04-01T14:33:11.442Z,990.01
2023-04-01T14:34:11.387Z,990.06
2023-04-01T14:35:11.373Z,990.18
2023-04-01T14:36:11.395Z,990.11
2023-04-01T14:37:11.355Z,990.14
2023-04-01T14:38:11.347Z,990.18
2023-04-01T14:39:11.338Z,990.12
2023-04-01T14:40:11.336Z,990.21
2023-04-01T14:41:11.321Z,990.13
2023-04-01T14:42:21.063Z,990.14
2023-04-01T14:43:11.310Z,990.15
2023-04-01T14:44:11.301Z,990.10
2023-04-01T14:45:11.291Z,990.16
2023-04-01T14:46:11.424Z,990.18
2023-04-01T14:47:11.277Z,990.13
2023-04-01T14:48:11.324Z,990.14
2023-04-01T14:49:11.260Z,990.14
2023-04-01T14:50:11.251Z,990.24
2023-04-01T14:51:11.237Z,990.21
2023-04-01T14:52:11.238Z,990.21
2023-04-01T14:53:11.223Z,990.19
2023-04-01T14:54:11.219Z,990.22
2023-04-01T14:55:11.208Z,990.34
2023-04-01T14:56:11.198Z,990.27
2023-04-01T14:57:11.238Z,990.28
2023-04-01T14:58:11.197Z,990.28
2023-04-01T14:59:11.186Z,990.34
2023-04-01T15:00:11.161Z,990.27
2023-04-01T15:01:11.203Z,990.29
2023-04-01T15:02:11.152Z,990.28
2023-04-01T15:03:11.292Z,990.35
2023-04-01T15:04:11.141Z,990.32
2023-04-01T15:05:11.175Z,990.29
2023-04-01T15:06:11.120Z,990.30
2023-04-01T15:07:11.117Z,990.32
2023-04-01T15:08:11.102Z,990.33
2023-04-01T15:09:11.089Z,990.35
2023-04-01T15:10:11.079Z,990.37